Time;durP1;ratioP1;P1;durP2;ratioP2;P2;SDS_P1;SDS_P2;PMS_P1;PMS_P2;Temp;Humidity;BMP_temperature;BMP_pressure;BME280_temperature;BME280_humidity;BME280_pressure;Samples;Min_cycle;Max_cycle;Signal;HPM_P1;HPM_P2
2022/03/08 00:02:11;;;;;;;26.50;16.10;;;;;;;-1.14;53.98;100481.15;116920;1189;22950;-63
2022/03/08 00:04:40;;;;;;;22.70;15.00;;;;;;;-1.15;53.98;100481.80;116878;1188;22934;-50
2022/03/08 00:07:12;;;;;;;23.20;15.10;;;;;;;-1.17;54.02;100479.84;116979;1188;23531;-63
2022/03/08 00:09:40;;;;;;;25.40;15.80;;;;;;;-1.17;54.13;100482.09;116898;1189;23478;-63
2022/03/08 00:12:27;;;;;;;23.60;15.10;;;;;;;-1.16;54.03;100482.30;116892;1189;23548;-50
2022/03/08 00:14:56;;;;;;;24.00;15.20;;;;;;;-1.18;54.06;100480.86;116873;1185;23453;-63
2022/03/08 00:17:44;;;;;;;21.80;14.20;;;;;;;-1.25;54.13;100478.52;116880;1188;23453;-63
2022/03/08 00:20:13;;;;;;;23.40;14.70;;;;;;;-1.32;54.28;100476.71;116843;1189;23503;-63
2022/03/08 00:22:41;;;;;;;23.50;14.80;;;;;;;-1.30;54.26;100480.23;116846;1189;23455;-50
2022/03/08 00:25:11;;;;;;;23.20;15.30;;;;;;;-1.31;54.29;100480.67;116939;1189;21855;-50
2022/03/08 00:27:45;;;;;;;25.50;15.40;;;;;;;-1.32;54.10;100473.95;116900;1189;21854;-63
2022/03/08 00:30:22;;;;;;;24.70;15.20;;;;;;;-1.34;54.40;100476.83;116895;1189;21869;-62
2022/03/08 00:32:51;;;;;;;22.70;14.50;;;;;;;-1.32;54.33;100477.04;116921;1188;23503;-50
2022/03/08 00:35:20;;;;;;;28.30;16.70;;;;;;;-1.29;54.33;100468.35;116902;1189;23506;-51
2022/03/08 00:37:49;;;;;;;23.20;15.50;;;;;;;-1.27;54.36;100469.67;116911;1188;23631;-50
2022/03/08 00:40:20;;;;;;;27.20;17.70;;;;;;;-1.24;54.57;100467.17;116956;1188;21910;-50
2022/03/08 00:42:49;;;;;;;23.10;15.70;;;;;;;-1.20;54.40;100465.43;116848;1189;23487;-51
2022/03/08 00:45:17;;;;;;;25.90;16.80;;;;;;;-1.16;54.50;100460.92;116895;1189;23573;-63
2022/03/08 00:47:47;;;;;;;28.40;17.60;;;;;;;-1.11;54.63;100462.31;116789;1187;23483;-58
2022/03/08 00:50:21;;;;;;;25.00;16.20;;;;;;;-1.06;54.53;100457.86;116845;1187;23478;-50
2022/03/08 00:52:51;;;;;;;25.10;16.40;;;;;;;-0.99;54.64;100456.72;116827;1189;22729;-61
2022/03/08 00:55:19;;;;;;;22.80;15.60;;;;;;;-0.94;54.59;100457.77;116872;1189;21857;-63
2022/03/08 00:57:48;;;;;;;25.20;16.20;;;;;;;-0.89;54.47;100452.24;116903;1189;23497;-62
2022/03/08 01:00:19;;;;;;;24.80;16.10;;;;;;;-0.85;54.54;100450.99;116866;1189;21971;-63
2022/03/08 01:02:47;;;;;;;24.60;15.50;;;;;;;-0.82;54.54;100447.15;116998;1188;23448;-50
2022/03/08 01:05:16;;;;;;;22.60;15.20;;;;;;;-0.79;54.85;100445.88;116925;1188;23477;-63
2022/03/08 01:07:45;;;;;;;25.30;16.20;;;;;;;-0.75;54.60;100444.82;116973;1189;21854;-50
2022/03/08 01:10:34;;;;;;;27.20;18.10;;;;;;;-0.69;54.80;100442.79;116843;1184;23685;-52
2022/03/08 01:13:03;;;;;;;27.50;17.50;;;;;;;-0.63;54.82;100440.58;116924;1188;23659;-51
2022/03/08 01:15:32;;;;;;;27.90;18.20;;;;;;;-0.57;54.85;100439.55;116888;1189;22929;-62
2022/03/08 01:18:00;;;;;;;30.10;19.40;;;;;;;-0.52;54.96;100438.52;116934;1188;23480;-50
2022/03/08 01:20:29;;;;;;;24.70;16.90;;;;;;;-0.47;54.78;100439.73;116917;1188;21854;-62
2022/03/08 01:22:58;;;;;;;28.90;18.60;;;;;;;-0.41;54.81;100438.01;116902;1186;23466;-62
2022/03/08 01:25:27;;;;;;;24.20;14.00;;;;;;;-0.36;54.95;100441.29;116902;1185;21871;-51
2022/03/08 01:27:56;;;;;;;29.30;19.00;;;;;;;-0.33;54.94;100437.09;116908;1188;23464;-50
2022/03/08 01:30:26;;;;;;;28.00;18.60;;;;;;;-0.31;54.68;100436.45;116931;1188;23557;-50
2022/03/08 01:32:54;;;;;;;23.80;16.80;;;;;;;-0.34;54.81;100433.08;116918;1188;24175;-50
2022/03/08 01:35:23;;;;;;;24.30;16.20;;;;;;;-0.32;55.00;100436.94;116925;1188;21854;-63
2022/03/08 01:37:52;;;;;;;26.10;17.10;;;;;;;-0.31;54.94;100436.30;116819;1188;23478;-62
2022/03/08 01:40:20;;;;;;;26.20;16.90;;;;;;;-0.29;54.91;100436.17;116889;1188;21868;-63
2022/03/08 01:42:49;;;;;;;24.90;15.90;;;;;;;-0.28;55.02;100432.40;116902;1188;23487;-51
2022/03/08 01:45:20;;;;;;;26.60;17.70;;;;;;;-0.27;55.07;100430.89;116957;1188;23452;-50
2022/03/08 01:47:49;;;;;;;26.10;17.70;;;;;;;-0.26;54.91;100429.38;116875;1188;21853;-63
2022/03/08 01:50:18;;;;;;;24.40;16.70;;;;;;;-0.22;55.04;100428.29;116920;1189;21888;-59
2022/03/08 01:52:46;;;;;;;25.30;16.80;;;;;;;-0.16;55.09;100426.92;116965;1188;22933;-63
2022/03/08 01:55:16;;;;;;;25.90;17.60;;;;;;;-0.12;55.23;100428.95;116829;1190;21977;-63
2022/03/08 01:57:46;;;;;;;28.90;19.70;;;;;;;-0.09;55.08;100429.73;116940;1188;21971;-63
2022/03/08 02:00:18;;;;;;;28.60;18.30;;;;;;;-0.09;55.07;100428.36;116949;1188;23425;-63
2022/03/08 02:02:47;;;;;;;27.70;16.90;;;;;;;-0.03;55.01;100429.23;116913;1188;23463;-63
2022/03/08 02:05:22;;;;;;;25.00;18.00;;;;;;;0.01;55.04;100431.25;116965;1188;22617;-63
2022/03/08 02:07:53;;;;;;;23.30;16.00;;;;;;;0.06;55.04;100430.89;118943;1188;21792;-62
2022/03/08 02:10:22;;;;;;;27.90;18.60;;;;;;;0.11;55.15;100432.94;116913;1188;21865;-62
2022/03/08 02:12:51;;;;;;;27.80;18.10;;;;;;;0.12;54.98;100431.77;116955;1184;23569;-62
2022/03/08 02:15:25;;;;;;;30.00;19.70;;;;;;;0.11;55.26;100432.59;116939;1188;23554;-50
2022/03/08 02:17:58;;;;;;;32.90;21.80;;;;;;;0.13;55.00;100434.56;116921;1188;23481;-50
2022/03/08 02:20:27;;;;;;;30.70;21.00;;;;;;;0.13;55.05;100429.03;116851;1189;22943;-50
2022/03/08 02:22:57;;;;;;;;;;;;;;;0.12;55.33;100433.67;116757;1190;21843;-61
2022/03/08 02:25:25;;;;;;;30.60;20.50;;;;;;;0.13;55.19;100435.94;116836;1189;21864;-50
2022/03/08 02:27:54;;;;;;;30.10;18.70;;;;;;;0.16;55.25;100434.48;116932;1189;23499;-62
2022/03/08 02:30:24;;;;;;;32.60;22.10;;;;;;;0.18;55.15;100435.60;116861;1189;22937;-59
2022/03/08 02:32:53;;;;;;;22.30;15.80;;;;;;;0.19;55.25;100434.05;116890;1190;23583;-61
2022/03/08 02:35:23;;;;;;;28.40;18.60;;;;;;;0.21;54.95;100430.48;116907;1189;22934;-52
2022/03/08 02:37:59;;;;;;;28.60;18.70;;;;;;;0.23;54.99;100433.14;116882;1189;21944;-49
2022/03/08 02:40:31;;;;;;;30.50;20.20;;;;;;;0.24;55.14;100431.95;116896;1189;21864;-50
2022/03/08 02:43:00;;;;;;;34.50;21.40;;;;;;;0.23;55.09;100431.40;116892;1189;21877;-61
2022/03/08 02:45:28;;;;;;;34.00;22.10;;;;;;;0.22;55.27;100433.61;116910;1189;23632;-52
2022/03/08 02:47:57;;;;;;;32.20;21.20;;;;;;;0.21;55.01;100433.45;116912;1191;23534;-61
2022/03/08 02:50:25;;;;;;;30.90;20.80;;;;;;;0.21;55.33;100436.36;116941;1189;22646;-62
2022/03/08 02:52:55;;;;;;;33.60;22.20;;;;;;;0.20;55.16;100438.41;116901;1189;22386;-52
2022/03/08 02:55:25;;;;;;;35.30;22.60;;;;;;;0.19;55.08;100437.85;116923;1189;21856;-61
2022/03/08 02:57:54;;;;;;;33.60;21.90;;;;;;;0.16;55.08;100442.23;116906;1189;21862;-50
2022/03/08 03:00:26;;;;;;;30.70;20.80;;;;;;;0.08;54.97;100440.62;116897;1189;22973;-52
2022/03/08 03:02:54;;;;;;;33.50;22.00;;;;;;;0.04;55.18;100437.55;116925;1189;21854;-62
2022/03/08 03:05:23;;;;;;;32.50;20.30;;;;;;;0.03;54.87;100439.41;116883;1189;22103;-50
2022/03/08 03:07:52;;;;;;;30.00;20.20;;;;;;;0.02;55.09;100442.33;116902;1189;23579;-62
2022/03/08 03:10:21;;;;;;;34.00;20.80;;;;;;;-0.03;55.02;100444.08;116947;1189;21857;-50
2022/03/08 03:12:50;;;;;;;30.70;19.80;;;;;;;-0.06;54.99;100443.82;116891;1189;21859;-62
2022/03/08 03:15:20;;;;;;;34.40;22.40;;;;;;;-0.07;55.06;100442.91;116847;1189;21856;-50
2022/03/08 03:17:50;;;;;;;29.10;20.20;;;;;;;-0.08;55.19;100446.33;116919;1188;22964;-62
2022/03/08 03:20:20;;;;;;;31.50;21.20;;;;;;;-0.09;55.08;100450.45;116914;1188;21856;-62
2022/03/08 03:22:49;;;;;;;32.30;22.00;;;;;;;-0.09;55.10;100448.87;116898;1188;21899;-62
2022/03/08 03:25:18;;;;;;;31.30;21.30;;;;;;;-0.11;55.12;100445.52;116743;1188;22934;-62
2022/03/08 03:27:47;;;;;;;36.90;22.90;;;;;;;-0.15;55.21;100442.30;116963;1188;24179;-63
2022/03/08 03:30:18;;;;;;;32.60;21.50;;;;;;;-0.18;55.09;100441.69;116852;1189;23472;-62
2022/03/08 03:32:46;;;;;;;33.10;21.70;;;;;;;-0.22;55.07;100438.80;116981;1189;21857;-50
2022/03/08 03:35:15;;;;;;;32.10;21.90;;;;;;;-0.25;54.89;100440.11;116837;1189;21860;-62
2022/03/08 03:37:43;;;;;;;34.30;21.80;;;;;;;-0.27;55.08;100442.77;116881;1188;21912;-61
2022/03/08 03:40:13;;;;;;;32.60;22.70;;;;;;;-0.29;55.06;100439.79;117011;1188;21864;-50
2022/03/08 03:42:42;;;;;;;31.60;20.90;;;;;;;-0.32;55.04;100448.49;116939;1188;21954;-51
2022/03/08 03:45:11;;;;;;;35.50;22.20;;;;;;;-0.34;54.97;100451.20;116968;1188;21852;-62
2022/03/08 03:47:40;;;;;;;33.20;22.30;;;;;;;-0.36;55.13;100445.09;116835;1189;21864;-51
2022/03/08 03:50:09;;;;;;;35.80;22.20;;;;;;;-0.39;55.01;100439.98;116893;1185;21967;-51
2022/03/08 03:52:37;;;;;;;32.30;21.30;;;;;;;-0.44;54.86;100446.88;116986;1188;21895;-50
2022/03/08 03:55:12;;;;;;;35.00;22.40;;;;;;;-0.48;55.00;100444.89;116841;1189;23003;-63
2022/03/08 03:57:42;;;;;;;31.30;20.20;;;;;;;-0.50;55.12;100442.02;116920;1188;23465;-62
2022/03/08 04:00:11;;;;;;;31.80;22.30;;;;;;;-0.55;55.14;100444.29;116924;1188;21851;-63
2022/03/08 04:02:40;;;;;;;;;;;;;;;-0.60;55.02;100455.48;116914;1192;21855;-63
2022/03/08 04:05:10;;;;;;;34.10;21.90;;;;;;;-0.65;54.95;100461.17;116976;1188;24294;-50
2022/03/08 04:07:39;;;;;;;31.40;20.20;;;;;;;-0.70;54.77;100461.16;116831;1189;21864;-51
2022/03/08 04:10:09;;;;;;;31.80;19.30;;;;;;;-0.72;55.08;100465.75;116957;1189;22466;-64
2022/03/08 04:12:37;;;;;;;33.30;21.50;;;;;;;-0.68;55.39;100462.27;116992;1186;21843;-63
2022/03/08 04:15:06;;;;;;;29.00;19.00;;;;;;;-0.68;54.94;100465.55;116898;1186;21851;-50
2022/03/08 04:17:34;;;;;;;35.00;22.30;;;;;;;-0.70;55.03;100465.64;116921;1184;24719;-51
2022/03/08 04:20:05;;;;;;;30.30;20.00;;;;;;;-0.72;54.98;100461.45;116973;1188;21843;-51
2022/03/08 04:22:33;;;;;;;30.90;21.20;;;;;;;-0.75;55.05;100463.27;116995;1186;21859;-63
2022/03/08 04:25:02;;;;;;;31.10;20.70;;;;;;;-0.79;55.05;100460.69;116972;1189;22950;-62
2022/03/08 04:27:30;;;;;;;31.20;20.80;;;;;;;-0.81;55.07;100459.95;116993;1188;21863;-50
2022/03/08 04:29:59;;;;;;;32.90;22.00;;;;;;;-0.79;55.10;100460.69;116946;1188;24174;-65
2022/03/08 04:32:28;;;;;;;34.20;22.60;;;;;;;-0.75;55.18;100457.04;116905;1188;22803;-64
2022/03/08 04:34:57;;;;;;;33.80;22.00;;;;;;;-0.71;55.24;100456.33;116919;1188;24175;-62
2022/03/08 04:37:25;;;;;;;36.80;22.70;;;;;;;-0.69;55.21;100464.52;116924;1189;21869;-63
2022/03/08 04:39:54;;;;;;;37.40;23.60;;;;;;;-0.67;55.08;100459.20;116958;1188;23459;-63
2022/03/08 04:42:22;;;;;;;34.10;22.20;;;;;;;-0.71;55.16;100460.65;117029;1189;22813;-50
2022/03/08 04:44:51;;;;;;;30.10;21.00;;;;;;;-0.75;55.03;100463.77;116913;1188;24169;-50
2022/03/08 04:47:20;;;;;;;35.20;23.00;;;;;;;-0.78;54.79;100467.46;116903;1188;22000;-63
2022/03/08 04:49:48;;;;;;;34.30;21.80;;;;;;;-0.81;54.92;100468.73;116879;1189;23097;-50
2022/03/08 04:52:17;;;;;;;34.20;22.30;;;;;;;-0.83;55.12;100462.60;116943;1190;21897;-62
2022/03/08 04:54:45;;;;;;;34.40;22.70;;;;;;;-0.91;54.92;100460.10;116780;1184;24189;-51
2022/03/08 04:57:14;;;;;;;34.40;21.00;;;;;;;-0.98;54.79;100455.39;116869;1188;23580;-63
2022/03/08 04:59:42;;;;;;;31.30;20.00;;;;;;;-1.04;54.79;100450.83;116906;1189;23681;-62
2022/03/08 05:02:11;;;;;;;34.70;21.50;;;;;;;-1.11;54.74;100446.98;116956;1188;22961;-63
2022/03/08 05:04:40;;;;;;;34.80;21.10;;;;;;;-1.16;54.78;100446.80;116884;1188;24137;-63
2022/03/08 05:07:10;;;;;;;38.00;23.90;;;;;;;-1.20;54.77;100447.86;116950;1188;21888;-52
2022/03/08 05:09:39;;;;;;;32.80;21.10;;;;;;;-1.25;54.81;100449.40;116870;1185;23455;-50
2022/03/08 05:12:08;;;;;;;38.00;24.50;;;;;;;-1.26;54.79;100451.43;116958;1188;21854;-50
2022/03/08 05:14:44;;;;;;;33.00;21.80;;;;;;;-1.26;54.78;100454.02;116921;1187;21855;-62
2022/03/08 05:17:13;;;;;;;36.50;23.50;;;;;;;-1.27;55.14;100454.52;116920;1188;23478;-62
2022/03/08 05:19:42;;;;;;;33.90;21.70;;;;;;;-1.26;55.00;100457.80;117005;1188;21914;-50
2022/03/08 05:22:11;;;;;;;32.70;22.70;;;;;;;-1.23;55.06;100460.51;116987;1188;22186;-62
2022/03/08 05:24:40;;;;;;;36.70;23.20;;;;;;;-1.18;55.10;100456.70;116950;1188;22360;-62
2022/03/08 05:27:08;;;;;;;34.30;22.10;;;;;;;-1.14;55.04;100460.85;116959;1188;21868;-51
2022/03/08 05:29:37;;;;;;;34.50;23.00;;;;;;;-1.05;55.30;100458.38;116882;1186;23624;-51
2022/03/08 05:32:06;;;;;;;34.00;22.10;;;;;;;-1.01;55.61;100451.31;116903;1188;23904;-63
2022/03/08 05:34:35;;;;;;;33.70;21.50;;;;;;;-0.91;55.52;100450.80;117365;1188;21855;-50
2022/03/08 05:37:04;;;;;;;32.90;21.50;;;;;;;-0.79;55.56;100452.24;117547;1188;24171;-50
2022/03/08 05:39:33;;;;;;;30.70;20.20;;;;;;;-0.71;55.48;100453.71;116950;1188;23506;-50
2022/03/08 05:42:02;;;;;;;35.80;22.50;;;;;;;-0.66;55.67;100455.10;116952;1188;21863;-51
2022/03/08 05:44:30;;;;;;;34.40;21.70;;;;;;;-0.61;55.61;100459.94;116967;1188;24164;-62
2022/03/08 05:46:59;;;;;;;33.30;22.10;;;;;;;-0.52;55.69;100467.12;116924;1188;23563;-51
2022/03/08 05:49:28;;;;;;;33.40;22.70;;;;;;;-0.45;55.68;100467.20;116830;1189;24278;-50
2022/03/08 05:51:56;;;;;;;35.80;23.30;;;;;;;-0.33;55.61;100467.59;116970;1188;24185;-62
2022/03/08 05:54:25;;;;;;;32.00;21.90;;;;;;;-0.24;55.74;100463.41;116905;1188;23451;-51
2022/03/08 05:56:53;;;;;;;36.60;24.00;;;;;;;-0.10;55.66;100466.42;116882;1188;22461;-51
2022/03/08 05:59:22;;;;;;;37.20;23.40;;;;;;;0.01;55.69;100467.13;116955;1188;22666;-51
2022/03/08 06:01:50;;;;;;;31.30;21.10;;;;;;;0.09;55.75;100471.00;116956;1189;23476;-50
2022/03/08 06:04:20;;;;;;;34.70;22.00;;;;;;;0.17;55.78;100473.68;116997;1188;23033;-63
2022/03/08 06:06:50;;;;;;;31.90;21.60;;;;;;;0.27;55.78;100477.26;116925;1188;22916;-51
2022/03/08 06:09:28;;;;;;;37.40;23.20;;;;;;;0.37;55.88;100478.10;116768;1189;23580;-64
2022/03/08 06:11:58;;;;;;;33.00;23.90;;;;;;;0.50;56.06;100476.23;116967;1188;23579;-65
2022/03/08 06:14:27;;;;;;;39.40;24.90;;;;;;;0.62;56.06;100475.90;116879;1188;23470;-65
2022/03/08 06:17:15;;;;;;;32.20;21.80;;;;;;;0.73;56.15;100475.36;116833;1188;22724;-52
2022/03/08 06:19:45;;;;;;;33.80;23.20;;;;;;;0.84;55.98;100473.10;116931;1189;23454;-66
2022/03/08 06:22:13;;;;;;;38.00;24.40;;;;;;;0.94;55.86;100477.85;116949;1188;22951;-51
2022/03/08 06:24:42;;;;;;;34.60;22.90;;;;;;;1.03;55.86;100478.11;116998;1188;22809;-67
2022/03/08 06:27:10;;;;;;;34.70;24.40;;;;;;;1.15;55.94;100478.27;116941;1188;22928;-68
2022/03/08 06:29:39;;;;;;;34.70;23.80;;;;;;;1.26;56.13;100478.39;116814;1189;21895;-68
2022/03/08 06:32:08;;;;;;;40.90;25.10;;;;;;;1.37;56.12;100478.51;116989;1188;22934;-68
2022/03/08 06:34:37;;;;;;;33.70;23.40;;;;;;;1.47;55.84;100481.19;116967;1188;21903;-67
2022/03/08 06:37:05;;;;;;;34.90;24.00;;;;;;;1.59;56.31;100480.99;116928;1188;21872;-66
2022/03/08 06:39:34;;;;;;;35.20;25.00;;;;;;;1.69;56.22;100482.11;116918;1188;22935;-66
2022/03/08 06:42:03;;;;;;;35.30;24.40;;;;;;;1.81;56.27;100480.16;117010;1188;23557;-66
2022/03/08 06:44:32;;;;;;;33.70;24.20;;;;;;;1.93;56.06;100476.48;118903;1188;21785;-67
2022/03/08 06:47:01;;;;;;;34.80;25.10;;;;;;;2.06;56.31;100476.08;116832;1189;22936;-52
2022/03/08 06:49:29;;;;;;;37.10;24.80;;;;;;;2.22;56.58;100476.98;116802;1189;23660;-51
2022/03/08 06:51:58;;;;;;;37.30;26.40;;;;;;;2.37;56.38;100477.35;116803;1189;22987;-50
2022/03/08 06:54:26;;;;;;;32.30;22.90;;;;;;;2.48;56.25;100476.53;116921;1188;22948;-50
2022/03/08 06:56:55;;;;;;;36.40;24.10;;;;;;;2.57;56.26;100475.17;116936;1188;23555;-65
2022/03/08 06:59:24;;;;;;;35.80;25.30;;;;;;;2.59;56.34;100478.52;117032;1188;22953;-50
2022/03/08 07:01:52;;;;;;;33.20;23.00;;;;;;;2.68;56.13;100475.77;116949;1188;23029;-64
2022/03/08 07:04:21;;;;;;;35.70;23.70;;;;;;;2.73;56.19;100474.65;116977;1192;21899;-50
2022/03/08 07:06:55;;;;;;;32.60;24.00;;;;;;;2.75;56.22;100475.56;116986;1188;21923;-51
2022/03/08 07:09:23;;;;;;;33.00;23.00;;;;;;;2.83;56.22;100476.95;116901;1184;22647;-52
2022/03/08 07:11:52;;;;;;;28.20;20.60;;;;;;;2.85;56.28;100475.08;116958;1188;23570;-65
2022/03/08 07:14:36;;;;;;;34.50;23.10;;;;;;;2.95;56.28;100477.88;116915;1188;23557;-64
2022/03/08 07:17:05;;;;;;;32.80;22.10;;;;;;;3.01;56.28;100477.32;116920;1188;23557;-52
2022/03/08 07:19:34;;;;;;;28.90;21.10;;;;;;;3.05;56.39;100477.92;117299;1189;21938;-66
2022/03/08 07:22:03;;;;;;;31.20;21.00;;;;;;;3.11;56.35;100477.50;117318;1188;21861;-51
2022/03/08 07:24:32;;;;;;;31.00;22.60;;;;;;;3.19;56.35;100475.05;116950;1188;23615;-54
2022/03/08 07:27:00;;;;;;;32.10;24.20;;;;;;;3.28;56.45;100472.80;116864;1189;21865;-53
2022/03/08 07:29:29;;;;;;;27.40;19.00;;;;;;;3.35;56.27;100478.30;116942;1189;21861;-52
2022/03/08 07:31:58;;;;;;;26.50;19.40;;;;;;;3.34;56.27;100474.30;116992;1189;22979;-54
2022/03/08 07:34:27;;;;;;;27.90;20.20;;;;;;;3.34;56.36;100476.20;116943;1189;21930;-65
2022/03/08 07:36:56;;;;;;;27.80;20.10;;;;;;;3.35;56.19;100472.41;116905;1189;21854;-54
2022/03/08 07:39:25;;;;;;;27.60;20.20;;;;;;;3.42;56.22;100474.98;116904;1189;21853;-64
2022/03/08 07:41:54;;;;;;;25.00;17.60;;;;;;;3.48;56.44;100475.08;117101;1184;21863;-63
2022/03/08 07:44:23;;;;;;;26.80;19.00;;;;;;;3.57;56.32;100475.91;116829;1189;23481;-63
2022/03/08 07:46:53;;;;;;;28.40;20.20;;;;;;;3.64;56.45;100479.86;116908;1189;21901;-55
2022/03/08 07:49:24;;;;;;;25.20;17.80;;;;;;;3.66;56.28;100475.05;116904;1189;21845;-64
2022/03/08 07:51:52;;;;;;;25.70;18.30;;;;;;;3.70;56.38;100476.52;118937;1188;21777;-56
2022/03/08 07:54:22;;;;;;;24.60;17.30;;;;;;;3.74;56.26;100477.09;117396;1188;23567;-48
2022/03/08 07:56:51;;;;;;;24.70;17.30;;;;;;;3.72;56.09;100471.86;116951;1189;21857;-66
2022/03/08 07:59:20;;;;;;;25.20;17.70;;;;;;;3.71;56.08;100476.70;116955;1190;21845;-52
2022/03/08 08:01:51;;;;;;;20.40;15.80;;;;;;;3.65;56.20;100475.91;116958;1189;21860;-52
2022/03/08 08:04:21;;;;;;;28.30;18.90;;;;;;;3.63;55.98;100471.86;116936;1189;21862;-53
2022/03/08 08:06:53;;;;;;;24.90;17.90;;;;;;;3.62;56.07;100478.79;116936;1189;21862;-53
2022/03/08 08:09:22;;;;;;;29.80;21.00;;;;;;;3.66;56.30;100477.30;116968;1189;22919;-52
2022/03/08 08:11:52;;;;;;;25.00;17.70;;;;;;;3.77;56.38;100471.60;116950;1188;23383;-61
2022/03/08 08:14:22;;;;;;;21.90;17.20;;;;;;;3.85;56.34;100474.33;116965;1189;22954;-64
2022/03/08 08:16:51;;;;;;;25.60;18.10;;;;;;;3.93;56.34;100475.51;116981;1188;22884;-64
2022/03/08 08:19:20;;;;;;;29.80;21.80;;;;;;;4.08;56.22;100473.48;116830;1189;21919;-64
2022/03/08 08:21:51;;;;;;;22.90;17.70;;;;;;;4.17;56.05;100468.41;116852;1184;23453;-53
2022/03/08 08:24:20;;;;;;;;;;;;;;;4.20;56.11;100466.88;116611;1189;23381;-53
2022/03/08 08:26:50;;;;;;;23.70;15.60;;;;;;;4.13;56.01;100468.02;116906;1189;21872;-54
2022/03/08 08:29:19;;;;;;;20.80;15.10;;;;;;;4.21;55.85;100463.60;116969;1189;21878;-63
2022/03/08 08:31:48;;;;;;;23.10;16.40;;;;;;;4.20;55.96;100462.90;116923;1189;22658;-54
2022/03/08 08:34:17;;;;;;;20.10;15.20;;;;;;;4.21;56.18;100459.80;116935;1188;22916;-61
2022/03/08 08:36:47;;;;;;;26.10;17.60;;;;;;;4.24;56.16;100463.46;116860;1188;22056;-63
2022/03/08 08:39:21;;;;;;;31.10;19.00;;;;;;;4.24;56.13;100462.25;116852;1189;24792;-54
2022/03/08 08:41:51;;;;;;;24.10;16.40;;;;;;;4.29;56.16;100460.24;117126;1189;21972;-63
2022/03/08 08:44:25;;;;;;;19.30;14.30;;;;;;;4.38;56.47;100459.87;116817;1187;21855;-63
2022/03/08 08:46:54;;;;;;;19.30;14.00;;;;;;;4.51;56.46;100452.73;116878;1189;23601;-57
2022/03/08 08:49:25;;;;;;;20.20;14.00;;;;;;;4.58;56.28;100451.45;116854;1189;24173;-65
2022/03/08 08:51:55;;;;;;;20.30;14.10;;;;;;;4.62;56.35;100448.89;116919;1189;21857;-64
2022/03/08 08:54:24;;;;;;;;;;;;;;;4.66;56.24;100449.10;116928;1189;23528;-54
2022/03/08 08:56:52;;;;;;;23.20;16.40;;;;;;;4.72;56.17;100450.05;116942;1189;21954;-54
2022/03/08 08:59:21;;;;;;;21.80;15.70;;;;;;;4.80;56.32;100453.64;116912;1189;23615;-61
2022/03/08 09:01:50;;;;;;;18.10;13.20;;;;;;;4.86;56.39;100457.88;116952;1189;23597;-63
2022/03/08 09:04:19;;;;;;;21.80;15.10;;;;;;;4.95;56.35;100459.04;116757;1190;23605;-54
2022/03/08 09:06:48;;;;;;;19.10;13.70;;;;;;;5.08;56.63;100456.05;116878;1189;23652;-64
2022/03/08 09:09:17;;;;;;;18.30;13.20;;;;;;;5.15;56.35;100459.95;116904;1189;22998;-64
2022/03/08 09:11:47;;;;;;;18.00;13.60;;;;;;;5.08;55.97;100458.66;116925;1189;22995;-63
2022/03/08 09:14:17;;;;;;;19.90;14.00;;;;;;;4.91;56.02;100465.23;116916;1189;21983;-61
2022/03/08 09:16:45;;;;;;;20.20;15.30;;;;;;;4.74;55.90;100466.77;116785;1190;21864;-61
2022/03/08 09:19:14;;;;;;;19.40;14.50;;;;;;;4.56;55.90;100466.01;116845;1189;24180;-62
2022/03/08 09:21:43;;;;;;;20.20;15.10;;;;;;;4.40;55.65;100471.02;116925;1188;23623;-54
2022/03/08 09:24:11;;;;;;;19.70;14.60;;;;;;;4.24;55.70;100469.38;116992;1188;22621;-62
2022/03/08 09:26:41;;;;;;;36.10;22.90;;;;;;;4.16;55.42;100473.59;116924;1187;23560;-53
2022/03/08 09:29:09;;;;;;;45.80;25.60;;;;;;;4.08;55.59;100472.27;116942;1189;23636;-64
2022/03/08 09:31:38;;;;;;;25.90;18.90;;;;;;;4.05;55.45;100469.79;116738;1189;22839;-54
2022/03/08 09:34:06;;;;;;;23.50;17.30;;;;;;;3.96;55.22;100470.00;116813;1189;21861;-65
2022/03/08 09:36:36;;;;;;;24.40;17.80;;;;;;;3.72;55.51;100468.38;116794;1189;23862;-66
2022/03/08 09:39:04;;;;;;;24.80;18.40;;;;;;;3.61;55.62;100471.14;116802;1189;21909;-67
2022/03/08 09:41:33;;;;;;;22.40;17.10;;;;;;;3.54;55.62;100470.84;116813;1189;23625;-53
2022/03/08 09:44:02;;;;;;;23.00;18.30;;;;;;;3.50;55.74;100470.60;116808;1189;24251;-53
2022/03/08 09:46:33;;;;;;;26.30;19.60;;;;;;;3.50;55.79;100470.78;116974;1188;23690;-53
2022/03/08 09:49:01;;;;;;;27.60;20.60;;;;;;;3.54;55.83;100469.98;117023;1188;23455;-52
2022/03/08 09:51:30;;;;;;;26.30;20.10;;;;;;;3.58;55.88;100468.83;117042;1186;21856;-60
2022/03/08 09:53:58;;;;;;;30.90;20.90;;;;;;;3.59;55.89;100466.59;117035;1188;22183;-53
2022/03/08 09:56:27;;;;;;;27.00;20.80;;;;;;;3.57;55.90;100463.44;116861;1189;23468;-66
2022/03/08 09:58:55;;;;;;;27.20;20.00;;;;;;;3.57;55.85;100465.52;117061;1188;23503;-66
2022/03/08 10:01:24;;;;;;;23.50;17.10;;;;;;;3.57;55.84;100464.65;117004;1188;23898;-53
2022/03/08 10:03:53;;;;;;;25.30;20.30;;;;;;;3.57;56.07;100465.17;116954;1188;23656;-66
2022/03/08 10:06:22;;;;;;;25.00;17.20;;;;;;;3.60;56.01;100464.35;116949;1191;21855;-53
2022/03/08 10:08:52;;;;;;;26.00;16.60;;;;;;;3.57;55.95;100462.92;116891;1189;23588;-67
2022/03/08 10:11:20;;;;;;;31.00;22.20;;;;;;;3.55;55.94;100465.13;116773;1190;21917;-67
2022/03/08 10:14:00;;;;;;;30.60;22.10;;;;;;;3.57;56.02;100466.04;116923;1188;22732;-54
2022/03/08 10:16:41;;;;;;;29.40;20.10;;;;;;;3.61;56.09;100463.67;116747;1190;22012;-68
2022/03/08 10:19:11;;;;;;;35.00;24.50;;;;;;;3.69;56.30;100460.19;116825;1189;22169;-66
2022/03/08 10:21:44;;;;;;;29.50;20.80;;;;;;;3.75;56.22;100460.45;116809;1189;23453;-53
2022/03/08 10:24:18;;;;;;;36.30;24.10;;;;;;;3.81;56.28;100461.23;116826;1189;23457;-66
2022/03/08 10:26:50;;;;;;;42.40;27.30;;;;;;;3.83;56.14;100461.96;116726;1190;23774;-54
2022/03/08 10:29:38;;;;;;;31.40;21.30;;;;;;;3.85;56.33;100462.52;116700;1190;22939;-67
2022/03/08 10:32:16;;;;;;;40.00;26.30;;;;;;;3.87;56.33;100461.69;116932;1189;24169;-67
2022/03/08 10:34:46;;;;;;;53.00;32.80;;;;;;;3.91;56.23;100461.92;116752;1189;23009;-54
2022/03/08 10:37:19;;;;;;;31.10;21.60;;;;;;;3.90;56.11;100458.96;116927;1189;21868;-53
2022/03/08 10:39:53;;;;;;;27.30;19.00;;;;;;;3.89;56.29;100454.09;116891;1189;23563;-53
2022/03/08 10:42:23;;;;;;;22.80;17.20;;;;;;;3.93;56.11;100453.45;116702;1189;23823;-67
2022/03/08 10:44:53;;;;;;;25.00;18.00;;;;;;;3.99;56.11;100450.77;116830;1189;21900;-66
2022/03/08 10:47:21;;;;;;;25.10;19.30;;;;;;;4.03;56.21;100445.80;116693;1192;21858;-67
2022/03/08 10:49:55;;;;;;;22.70;18.10;;;;;;;4.12;56.11;100446.80;116889;1189;23560;-67
2022/03/08 10:52:51;;;;;;;22.80;17.40;;;;;;;4.26;56.07;100443.86;117788;1189;21891;-67
2022/03/08 10:55:26;;;;;;;22.80;16.80;;;;;;;4.36;56.01;100441.25;116701;1185;23183;-65
2022/03/08 10:57:57;;;;;;;23.00;17.30;;;;;;;4.43;55.99;100434.90;116715;1189;21860;-53
2022/03/08 11:00:33;;;;;;;24.00;18.80;;;;;;;4.48;55.92;100434.45;116799;1189;21857;-54
2022/03/08 11:03:05;;;;;;;23.70;19.40;;;;;;;4.54;55.99;100430.72;116772;1189;21877;-66
2022/03/08 11:05:35;;;;;;;22.90;17.10;;;;;;;4.58;55.84;100423.81;117003;1189;22889;-53
2022/03/08 11:08:04;;;;;;;25.70;20.90;;;;;;;4.60;55.95;100421.92;117391;1188;21862;-53
2022/03/08 11:10:33;;;;;;;21.60;17.20;;;;;;;4.64;56.10;100420.05;116885;1189;21954;-67
2022/03/08 11:13:02;;;;;;;20.80;15.40;;;;;;;4.69;55.95;100419.77;116969;1189;21901;-66
2022/03/08 11:15:32;;;;;;;21.30;16.30;;;;;;;4.71;56.03;100416.49;116944;1189;24272;-55
2022/03/08 11:18:03;;;;;;;24.20;16.60;;;;;;;4.74;56.03;100414.96;116962;1188;23099;-66
2022/03/08 11:20:53;;;;;;;23.60;16.00;;;;;;;4.78;55.97;100410.14;116918;1187;23569;-65